createdAt,value
2022-09-15T00:00:40.549Z,18.70
2022-09-15T00:01:39.709Z,17.80
2022-09-15T00:02:39.617Z,10.00
2022-09-15T00:03:39.524Z,15.00
2022-09-15T00:04:39.533Z,13.40
2022-09-15T00:05:39.573Z,10.90
2022-09-15T00:06:39.547Z,12.00
2022-09-15T00:07:40.197Z,13.90
2022-09-15T00:08:39.486Z,7.30
2022-09-15T00:09:39.456Z,12.40
2022-09-15T00:10:39.448Z,11.30
2022-09-15T00:11:39.426Z,13.20
2022-09-15T00:12:40.165Z,15.20
2022-09-15T00:13:39.607Z,7.80
2022-09-15T00:14:39.367Z,10.40
2022-09-15T00:15:40.138Z,9.70
2022-09-15T00:16:40.389Z,6.50
2022-09-15T00:17:39.369Z,9.10
2022-09-15T00:18:40.099Z,9.10
2022-09-15T00:19:39.320Z,8.00
2022-09-15T00:20:39.279Z,13.20
2022-09-15T00:21:39.268Z,7.50
2022-09-15T00:22:39.237Z,9.70
2022-09-15T00:23:39.264Z,9.30
2022-09-15T00:24:39.213Z,10.00
2022-09-15T00:25:39.409Z,10.50
2022-09-15T00:26:39.189Z,9.20
2022-09-15T00:27:39.159Z,12.80
2022-09-15T00:28:39.211Z,7.70
2022-09-15T00:29:39.139Z,8.90
2022-09-15T00:30:40.057Z,5.50
2022-09-15T00:31:39.148Z,7.60
2022-09-15T00:32:39.102Z,6.50
2022-09-15T00:33:39.167Z,5.80
2022-09-15T00:34:39.103Z,7.10
2022-09-15T00:35:40.038Z,4.10
2022-09-15T00:36:39.075Z,4.90
2022-09-15T00:37:39.021Z,4.90
2022-09-15T00:38:39.016Z,4.00
2022-09-15T00:39:39.943Z,6.90
2022-09-15T00:40:39.784Z,6.40
2022-09-15T00:41:39.946Z,5.60
2022-09-15T00:42:39.852Z,5.20
2022-09-15T00:43:38.984Z,4.70
2022-09-15T00:44:39.917Z,5.10
2022-09-15T00:45:39.881Z,4.60
2022-09-15T00:46:39.240Z,4.00
2022-09-15T00:47:40.346Z,4.60
2022-09-15T00:48:38.894Z,4.80
2022-09-15T00:49:39.686Z,3.90
2022-09-15T00:50:39.846Z,4.60
2022-09-15T00:51:39.744Z,4.60
2022-09-15T00:52:38.850Z,3.20
2022-09-15T00:53:38.874Z,3.20
2022-09-15T00:54:39.724Z,4.90
2022-09-15T00:55:38.796Z,3.70
2022-09-15T00:56:38.786Z,3.70
2022-09-15T00:57:38.796Z,4.00
2022-09-15T00:58:39.098Z,3.70
2022-09-15T00:59:39.496Z,4.30
2022-09-15T01:00:38.747Z,4.10
2022-09-15T01:01:39.575Z,3.80
2022-09-15T01:02:39.491Z,2.90
2022-09-15T01:03:39.627Z,3.30
2022-09-15T01:04:39.529Z,3.50
2022-09-15T01:05:39.428Z,3.00
2022-09-15T01:06:39.588Z,3.30
2022-09-15T01:07:38.631Z,3.40
2022-09-15T01:08:38.611Z,3.30
2022-09-15T01:09:39.564Z,4.20
2022-09-15T01:10:39.525Z,5.10
2022-09-15T01:11:38.619Z,4.60
2022-09-15T01:12:39.528Z,4.40
2022-09-15T01:13:38.609Z,3.80
2022-09-15T01:14:39.331Z,3.40
2022-09-15T01:15:39.493Z,3.60
2022-09-15T01:16:38.559Z,5.40
2022-09-15T01:17:39.300Z,5.30
2022-09-15T01:18:38.461Z,2.70
2022-09-15T01:19:39.362Z,3.10
2022-09-15T01:20:39.271Z,2.80
2022-09-15T01:21:38.422Z,4.30
2022-09-15T01:22:39.332Z,4.30
2022-09-15T01:23:39.241Z,3.50
2022-09-15T01:24:39.135Z,3.20
2022-09-15T01:25:38.353Z,5.10
2022-09-15T01:26:38.367Z,4.20
2022-09-15T01:27:42.494Z,4.30
2022-09-15T01:28:39.271Z,4.80
2022-09-15T01:29:39.174Z,4.60
2022-09-15T01:30:39.076Z,3.50
2022-09-15T01:31:39.273Z,4.00
2022-09-15T01:32:38.323Z,2.90
2022-09-15T01:33:38.295Z,3.70
2022-09-15T01:34:39.207Z,4.10
2022-09-15T01:35:39.666Z,4.80
2022-09-15T01:36:39.020Z,2.90
2022-09-15T01:37:39.253Z,3.70
2022-09-15T01:38:39.076Z,3.80
2022-09-15T01:39:38.989Z,3.60
2022-09-15T01:40:39.146Z,2.80
2022-09-15T01:41:38.125Z,5.20
2022-09-15T01:42:38.978Z,3.40
2022-09-15T01:43:38.129Z,3.10
2022-09-15T01:44:38.506Z,6.40
2022-09-15T01:45:38.972Z,4.70
2022-09-15T01:46:38.077Z,4.70
2022-09-15T01:47:38.979Z,3.80
2022-09-15T01:48:38.889Z,3.60
2022-09-15T01:49:38.040Z,3.40
2022-09-15T01:50:38.948Z,4.70
2022-09-15T01:51:37.985Z,5.80
2022-09-15T01:52:37.987Z,4.90
2022-09-15T01:53:38.919Z,3.20
2022-09-15T01:54:37.969Z,4.90
2022-09-15T01:55:38.056Z,4.90
2022-09-15T01:56:37.958Z,5.10
2022-09-15T01:57:37.919Z,3.00
2022-09-15T01:58:38.695Z,5.30
2022-09-15T01:59:37.874Z,5.50
2022-09-15T02:00:38.061Z,5.40
2022-09-15T02:01:37.954Z,4.30
2022-09-15T02:02:38.894Z,5.40
2022-09-15T02:03:37.951Z,4.10
2022-09-15T02:04:38.661Z,4.40
2022-09-15T02:05:37.882Z,3.90
2022-09-15T02:06:37.965Z,4.80
2022-09-15T02:07:37.924Z,4.10
2022-09-15T02:08:37.935Z,4.00
2022-09-15T02:09:37.964Z,2.90
2022-09-15T02:10:37.945Z,5.60
2022-09-15T02:11:37.895Z,4.10
2022-09-15T02:12:37.866Z,4.20
2022-09-15T02:13:37.958Z,3.50
2022-09-15T02:14:37.981Z,5.90
2022-09-15T02:15:38.598Z,5.80
2022-09-15T02:16:37.693Z,3.50
2022-09-15T02:17:38.408Z,5.20
2022-09-15T02:18:37.664Z,4.30
2022-09-15T02:19:37.605Z,5.10
2022-09-15T02:20:37.806Z,5.10
2022-09-15T02:21:37.670Z,3.70
2022-09-15T02:22:37.577Z,4.30
2022-09-15T02:23:38.187Z,4.10
2022-09-15T02:24:37.585Z,3.10
2022-09-15T02:25:37.537Z,5.10
2022-09-15T02:26:37.634Z,3.50
2022-09-15T02:27:37.575Z,3.90
2022-09-15T02:28:38.394Z,4.00
2022-09-15T02:29:37.619Z,4.90
2022-09-15T02:30:37.590Z,4.90
2022-09-15T02:31:37.456Z,4.30
2022-09-15T02:32:37.411Z,4.90
2022-09-15T02:33:37.449Z,5.30
2022-09-15T02:34:37.368Z,3.60
2022-09-15T02:35:37.422Z,4.70
2022-09-15T02:36:37.361Z,4.00
2022-09-15T02:37:37.380Z,6.30
2022-09-15T02:38:37.334Z,7.20
2022-09-15T02:39:37.322Z,6.00
2022-09-15T02:40:37.351Z,4.50
2022-09-15T02:41:37.326Z,5.20
2022-09-15T02:42:37.290Z,4.90
2022-09-15T02:43:37.363Z,4.40
2022-09-15T02:44:38.114Z,4.40
2022-09-15T02:45:37.265Z,3.90
2022-09-15T02:46:37.205Z,5.00
2022-09-15T02:47:37.242Z,5.50
2022-09-15T02:48:37.204Z,4.80
2022-09-15T02:49:37.186Z,4.10
2022-09-15T02:50:37.315Z,4.70
2022-09-15T02:51:37.185Z,7.50
2022-09-15T02:52:37.103Z,5.80
2022-09-15T02:53:37.079Z,6.20
2022-09-15T02:54:37.928Z,5.10
2022-09-15T02:55:37.098Z,4.60
2022-09-15T02:56:37.077Z,4.50
2022-09-15T02:57:37.055Z,5.70
2022-09-15T02:58:37.038Z,4.90
2022-09-15T02:59:37.027Z,6.90
2022-09-15T03:00:37.894Z,5.70
2022-09-15T03:01:37.037Z,6.30
2022-09-15T03:02:37.006Z,8.00
2022-09-15T03:03:42.290Z,5.40
2022-09-15T03:04:38.758Z,7.60
2022-09-15T03:05:36.988Z,8.80
2022-09-15T03:06:37.798Z,11.00
2022-09-15T03:07:36.928Z,8.40
2022-09-15T03:08:36.880Z,6.10
2022-09-15T03:09:36.876Z,10.10
2022-09-15T03:10:36.859Z,7.70
2022-09-15T03:11:37.049Z,8.10
2022-09-15T03:12:37.138Z,6.80
2022-09-15T03:13:37.202Z,9.50
2022-09-15T03:14:37.169Z,8.30
2022-09-15T03:15:37.143Z,6.80
2022-09-15T03:16:37.642Z,8.30
2022-09-15T03:17:36.777Z,8.80
2022-09-15T03:18:36.773Z,6.40
2022-09-15T03:19:36.744Z,5.70
2022-09-15T03:20:36.724Z,6.90
2022-09-15T03:21:37.644Z,7.70
2022-09-15T03:22:36.727Z,7.50
2022-09-15T03:23:36.691Z,10.00
2022-09-15T03:24:36.674Z,7.80
2022-09-15T03:25:37.514Z,11.70
2022-09-15T03:26:36.638Z,7.90
2022-09-15T03:27:36.657Z,8.90
2022-09-15T03:28:37.476Z,5.10
2022-09-15T03:29:37.192Z,6.90
2022-09-15T03:30:37.552Z,9.70
2022-09-15T03:31:36.708Z,8.70
2022-09-15T03:32:36.556Z,7.10
2022-09-15T03:33:37.515Z,6.70
2022-09-15T03:34:36.565Z,9.80
2022-09-15T03:35:36.484Z,9.40
2022-09-15T03:36:36.498Z,12.50
2022-09-15T03:37:36.485Z,10.20
2022-09-15T03:38:37.303Z,9.20
2022-09-15T03:39:36.507Z,8.40
2022-09-15T03:40:37.355Z,9.00
2022-09-15T03:41:37.257Z,10.00
2022-09-15T03:42:36.420Z,8.10
2022-09-15T03:43:36.376Z,11.20
2022-09-15T03:44:36.397Z,10.00
2022-09-15T03:45:36.484Z,6.80
2022-09-15T03:46:37.262Z,11.40
2022-09-15T03:47:37.189Z,9.60
2022-09-15T03:48:36.370Z,12.70
2022-09-15T03:49:37.256Z,6.40
2022-09-15T03:50:36.329Z,9.10
2022-09-15T03:51:37.059Z,5.00
2022-09-15T03:52:36.269Z,7.70
2022-09-15T03:53:37.129Z,8.10
2022-09-15T03:54:37.029Z,6.20
2022-09-15T03:55:37.193Z,5.70
2022-09-15T03:56:37.091Z,3.90
2022-09-15T03:57:36.203Z,4.80
2022-09-15T03:58:36.170Z,6.40
2022-09-15T03:59:37.063Z,6.30
2022-09-15T04:00:36.223Z,6.30
2022-09-15T04:01:36.171Z,7.30
2022-09-15T04:02:36.144Z,8.30
2022-09-15T04:03:43.229Z,8.90
2022-09-15T04:04:37.994Z,9.60
2022-09-15T04:05:36.101Z,13.50
2022-09-15T04:06:36.088Z,10.10
2022-09-15T04:07:36.156Z,9.90
2022-09-15T04:08:36.277Z,9.50
2022-09-15T04:09:36.353Z,11.00
2022-09-15T04:10:36.752Z,10.50
2022-09-15T04:11:36.933Z,9.60
2022-09-15T04:12:35.992Z,5.60
2022-09-15T04:13:35.973Z,6.60
2022-09-15T04:14:35.951Z,6.30
2022-09-15T04:15:35.964Z,5.50
2022-09-15T04:16:36.186Z,4.40
2022-09-15T04:17:36.906Z,6.90
2022-09-15T04:18:36.030Z,5.70
2022-09-15T04:19:35.897Z,6.00
2022-09-15T04:20:35.956Z,7.00
2022-09-15T04:21:35.860Z,7.60
2022-09-15T04:22:35.858Z,6.20
2022-09-15T04:23:35.883Z,8.30
2022-09-15T04:24:35.838Z,7.70
2022-09-15T04:25:35.858Z,8.50
2022-09-15T04:26:36.777Z,7.50
2022-09-15T04:27:35.788Z,12.70
2022-09-15T04:28:36.593Z,9.90
2022-09-15T04:29:35.748Z,8.70
2022-09-15T04:30:35.758Z,12.00
2022-09-15T04:31:36.612Z,13.90
2022-09-15T04:32:36.508Z,8.30
2022-09-15T04:33:35.719Z,10.10
2022-09-15T04:34:41.089Z,12.50
2022-09-15T04:35:36.715Z,14.80
2022-09-15T04:36:36.590Z,13.60
2022-09-15T04:37:36.499Z,15.20
2022-09-15T04:38:36.641Z,17.20
2022-09-15T04:39:36.561Z,15.10
2022-09-15T04:40:35.690Z,11.80
2022-09-15T04:41:36.201Z,15.00
2022-09-15T04:42:35.773Z,17.70
2022-09-15T04:43:36.158Z,14.60
2022-09-15T04:44:37.339Z,13.30
2022-09-15T04:45:36.533Z,13.70
2022-09-15T04:46:41.618Z,12.20
2022-09-15T04:47:35.494Z,16.50
2022-09-15T04:48:35.953Z,14.20
2022-09-15T04:49:36.961Z,15.50
2022-09-15T04:50:36.263Z,17.60
2022-09-15T04:51:35.917Z,15.20
2022-09-15T04:52:35.507Z,17.90
2022-09-15T04:53:36.226Z,14.70
2022-09-15T04:54:35.446Z,11.80
2022-09-15T04:55:36.295Z,14.00
2022-09-15T04:56:36.197Z,11.40
2022-09-15T04:57:35.358Z,12.50
2022-09-15T04:58:35.365Z,11.10
2022-09-15T04:59:35.307Z,14.80
2022-09-15T05:00:36.833Z,16.70
2022-09-15T05:01:36.376Z,10.90
2022-09-15T05:02:36.211Z,11.90
2022-09-15T05:03:36.037Z,10.40
2022-09-15T05:04:36.198Z,12.70
2022-09-15T05:05:35.230Z,15.40
2022-09-15T05:06:36.660Z,11.90
2022-09-15T05:07:36.185Z,11.10
2022-09-15T05:08:36.070Z,16.40
2022-09-15T05:09:35.191Z,18.50
2022-09-15T05:10:35.174Z,12.90
2022-09-15T05:11:36.192Z,11.40
2022-09-15T05:12:35.214Z,15.80
2022-09-15T05:13:36.102Z,12.90
2022-09-15T05:14:35.140Z,10.30
2022-09-15T05:15:35.124Z,13.70
2022-09-15T05:16:35.155Z,15.60
2022-09-15T05:17:35.063Z,12.20
2022-09-15T05:18:35.876Z,13.20
2022-09-15T05:19:35.384Z,9.80
2022-09-15T05:20:35.942Z,12.20
2022-09-15T05:21:35.012Z,12.10
2022-09-15T05:22:39.533Z,15.00
2022-09-15T05:23:36.934Z,8.20
2022-09-15T05:24:35.816Z,10.10
2022-09-15T05:25:35.004Z,13.90
2022-09-15T05:26:35.881Z,9.10
2022-09-15T05:27:35.818Z,9.00
2022-09-15T05:28:34.895Z,9.80
2022-09-15T05:29:35.848Z,10.40
2022-09-15T05:30:39.577Z,13.10
2022-09-15T05:31:36.744Z,8.70
2022-09-15T05:32:34.856Z,10.80
2022-09-15T05:33:35.567Z,11.70
2022-09-15T05:34:35.622Z,12.50
2022-09-15T05:35:35.789Z,14.20
2022-09-15T05:36:35.723Z,13.50
2022-09-15T05:37:34.865Z,11.70
2022-09-15T05:38:34.776Z,11.20
2022-09-15T05:39:35.661Z,9.40
2022-09-15T05:40:35.614Z,8.50
2022-09-15T05:41:34.728Z,13.40
2022-09-15T05:42:35.627Z,10.50
2022-09-15T05:43:35.530Z,11.10
2022-09-15T05:44:34.668Z,9.30
2022-09-15T05:45:34.708Z,9.50
2022-09-15T05:46:34.795Z,10.50
2022-09-15T05:47:34.738Z,9.80
2022-09-15T05:48:34.709Z,7.70
2022-09-15T05:49:34.688Z,7.80
2022-09-15T05:50:34.739Z,12.50
2022-09-15T05:51:34.711Z,8.00
2022-09-15T05:52:34.687Z,11.50
2022-09-15T05:53:35.330Z,8.80
2022-09-15T05:54:34.541Z,7.50
2022-09-15T05:55:34.533Z,6.60
2022-09-15T05:56:35.303Z,8.20
2022-09-15T05:57:34.530Z,8.30
2022-09-15T05:58:34.526Z,9.20
2022-09-15T05:59:34.485Z,4.60
2022-09-15T06:00:34.462Z,9.30
2022-09-15T06:01:34.615Z,7.00
2022-09-15T06:02:35.275Z,6.00
2022-09-15T06:03:35.412Z,6.80
2022-09-15T06:04:34.437Z,6.40
2022-09-15T06:05:34.393Z,4.50
2022-09-15T06:06:34.400Z,9.00
2022-09-15T06:07:35.274Z,10.50
2022-09-15T06:08:35.179Z,6.60
2022-09-15T06:09:34.365Z,8.70
2022-09-15T06:10:35.238Z,7.50
2022-09-15T06:11:34.356Z,9.30
2022-09-15T06:12:34.256Z,8.30
2022-09-15T06:13:34.298Z,9.50
2022-09-15T06:14:35.115Z,5.50
2022-09-15T06:15:34.255Z,7.70
2022-09-15T06:16:34.392Z,7.60
2022-09-15T06:17:34.237Z,7.80
2022-09-15T06:18:34.236Z,8.00
2022-09-15T06:19:34.204Z,8.40
2022-09-15T06:20:34.186Z,5.50
2022-09-15T06:21:34.169Z,6.40
2022-09-15T06:22:34.187Z,7.80
2022-09-15T06:23:34.179Z,7.80
2022-09-15T06:24:34.245Z,8.40
2022-09-15T06:25:35.077Z,9.70
2022-09-15T06:26:35.001Z,8.10
2022-09-15T06:27:34.061Z,10.90
2022-09-15T06:28:35.051Z,6.80
2022-09-15T06:29:34.953Z,9.40
2022-09-15T06:30:34.020Z,10.20
2022-09-15T06:31:34.791Z,10.10
2022-09-15T06:32:35.441Z,9.30
2022-09-15T06:33:33.989Z,11.50
2022-09-15T06:34:33.990Z,6.60
2022-09-15T06:35:33.940Z,8.50
2022-09-15T06:36:34.017Z,6.90
2022-09-15T06:37:34.693Z,5.90
2022-09-15T06:38:33.902Z,7.50
2022-09-15T06:39:33.901Z,4.90
2022-09-15T06:40:33.909Z,4.80
2022-09-15T06:41:58.332Z,9.40
2022-09-15T06:42:34.904Z,8.20
2022-09-15T06:43:35.274Z,6.40
2022-09-15T06:44:34.795Z,6.40
2022-09-15T06:45:33.861Z,8.30
2022-09-15T06:46:34.660Z,5.50
2022-09-15T06:47:33.903Z,9.00
2022-09-15T06:48:33.802Z,7.60
2022-09-15T06:49:33.745Z,8.70
2022-09-15T06:50:33.752Z,8.90
2022-09-15T06:51:34.196Z,6.20
2022-09-15T06:52:34.148Z,5.90
2022-09-15T06:53:33.707Z,5.50
2022-09-15T06:54:33.695Z,6.00
2022-09-15T06:55:34.166Z,5.30
2022-09-15T06:56:37.875Z,6.30
2022-09-15T06:57:33.627Z,4.40
2022-09-15T06:58:33.678Z,4.90
2022-09-15T06:59:33.658Z,5.30
2022-09-15T07:00:33.617Z,6.30
2022-09-15T07:01:33.608Z,6.40
2022-09-15T07:02:34.480Z,6.50
2022-09-15T07:03:33.657Z,5.10
2022-09-15T07:04:34.974Z,5.80
2022-09-15T07:05:34.310Z,7.50
2022-09-15T07:06:33.518Z,7.00
2022-09-15T07:07:33.489Z,8.30
2022-09-15T07:08:34.280Z,4.70
2022-09-15T07:09:34.409Z,5.50
2022-09-15T07:10:33.461Z,8.90
2022-09-15T07:11:33.441Z,5.80
2022-09-15T07:12:33.464Z,6.50
2022-09-15T07:13:33.396Z,7.70
2022-09-15T07:14:33.391Z,7.50
2022-09-15T07:15:33.413Z,5.50
2022-09-15T07:16:33.450Z,7.00
2022-09-15T07:17:33.353Z,9.30
2022-09-15T07:18:34.084Z,8.50
2022-09-15T07:19:33.324Z,8.40
2022-09-15T07:20:33.374Z,7.00
2022-09-15T07:21:33.343Z,7.90
2022-09-15T07:22:34.254Z,8.50
2022-09-15T07:23:33.275Z,9.60
2022-09-15T07:24:34.074Z,7.30
2022-09-15T07:25:33.272Z,11.20
2022-09-15T07:26:33.858Z,7.20
2022-09-15T07:27:33.466Z,7.10
2022-09-15T07:28:33.205Z,5.40
2022-09-15T07:29:37.554Z,6.80
2022-09-15T07:30:34.668Z,10.10
2022-09-15T07:31:33.333Z,6.00
2022-09-15T07:32:34.017Z,10.20
2022-09-15T07:33:33.177Z,8.20
2022-09-15T07:34:34.087Z,5.90
2022-09-15T07:35:33.107Z,9.30
2022-09-15T07:36:33.118Z,6.50
2022-09-15T07:37:33.129Z,7.10
2022-09-15T07:38:33.092Z,4.50
2022-09-15T07:39:33.080Z,8.10
2022-09-15T07:40:34.102Z,8.80
2022-09-15T07:41:33.087Z,9.10
2022-09-15T07:42:35.443Z,5.70
2022-09-15T07:43:33.743Z,8.00
2022-09-15T07:44:33.891Z,10.70
2022-09-15T07:45:32.982Z,8.60
2022-09-15T07:46:32.963Z,7.50
2022-09-15T07:47:33.861Z,6.30
2022-09-15T07:48:32.921Z,7.50
2022-09-15T07:49:32.981Z,5.60
2022-09-15T07:50:32.892Z,6.80
2022-09-15T07:51:33.742Z,6.50
2022-09-15T07:52:32.863Z,7.70
2022-09-15T07:53:33.801Z,6.60
2022-09-15T07:54:33.148Z,5.50
2022-09-15T07:55:32.817Z,7.70
2022-09-15T07:56:33.765Z,9.10
2022-09-15T07:57:34.244Z,5.70
2022-09-15T07:58:32.805Z,9.20
2022-09-15T07:59:34.900Z,6.20
2022-09-15T08:00:33.668Z,8.60
2022-09-15T08:01:33.589Z,6.50
2022-09-15T08:02:33.077Z,8.50
2022-09-15T08:03:33.616Z,8.80
2022-09-15T08:04:33.507Z,7.40
2022-09-15T08:05:37.756Z,6.40
2022-09-15T08:06:33.681Z,9.50
2022-09-15T08:07:32.657Z,10.10
2022-09-15T08:08:32.651Z,8.80
2022-09-15T08:09:33.538Z,6.50
2022-09-15T08:10:33.447Z,7.90
2022-09-15T08:11:33.351Z,9.00
2022-09-15T08:12:33.509Z,8.40
2022-09-15T08:13:33.417Z,7.90
2022-09-15T08:14:33.319Z,7.30
2022-09-15T08:15:33.480Z,7.10
2022-09-15T08:16:33.452Z,7.90
2022-09-15T08:17:32.532Z,7.60
2022-09-15T08:18:32.502Z,6.80
2022-09-15T08:19:33.351Z,8.20
2022-09-15T08:20:33.253Z,7.80
2022-09-15T08:21:33.413Z,6.20
2022-09-15T08:22:33.321Z,6.10
2022-09-15T08:23:32.421Z,5.90
2022-09-15T08:24:33.383Z,6.00
2022-09-15T08:25:32.374Z,5.70
2022-09-15T08:26:33.191Z,5.70
2022-09-15T08:27:33.354Z,5.40
2022-09-15T08:28:32.376Z,7.80
2022-09-15T08:29:33.165Z,5.20
2022-09-15T08:30:32.318Z,5.10
2022-09-15T08:31:32.388Z,6.20
2022-09-15T08:32:32.283Z,8.60
2022-09-15T08:33:33.025Z,5.50
2022-09-15T08:34:33.198Z,6.30
2022-09-15T08:35:32.349Z,8.20
2022-09-15T08:36:32.998Z,8.50
2022-09-15T08:37:32.257Z,6.10
2022-09-15T08:38:32.259Z,3.60
2022-09-15T08:39:32.201Z,4.40
2022-09-15T08:40:33.185Z,6.50
2022-09-15T08:41:32.278Z,3.70
2022-09-15T08:42:32.935Z,4.40
2022-09-15T08:43:32.341Z,6.60
2022-09-15T08:44:33.023Z,4.90
2022-09-15T08:45:32.115Z,6.70
2022-09-15T08:46:32.181Z,6.40
2022-09-15T08:47:32.966Z,6.30
2022-09-15T08:48:32.872Z,4.70
2022-09-15T08:49:50.656Z,5.90
2022-09-15T08:50:33.072Z,6.00
2022-09-15T08:51:33.452Z,4.40
2022-09-15T08:52:32.004Z,7.80
2022-09-15T08:53:32.266Z,6.00
2022-09-15T08:54:32.819Z,7.00
2022-09-15T08:55:32.019Z,9.80
2022-09-15T08:56:32.035Z,7.80
2022-09-15T08:57:32.774Z,4.20
2022-09-15T08:58:31.910Z,6.90
2022-09-15T08:59:31.878Z,5.50
2022-09-15T09:00:31.916Z,8.00
2022-09-15T09:01:31.945Z,6.30
2022-09-15T09:02:32.094Z,6.80
2022-09-15T09:03:32.735Z,6.50
2022-09-15T09:04:32.616Z,7.00
2022-09-15T09:05:32.778Z,4.40
2022-09-15T09:06:32.677Z,4.20
2022-09-15T09:07:31.848Z,7.80
2022-09-15T09:08:32.738Z,7.20
2022-09-15T09:09:32.678Z,5.90
2022-09-15T09:10:32.549Z,5.30
2022-09-15T09:11:32.709Z,5.80
2022-09-15T09:12:31.760Z,4.30
2022-09-15T09:13:35.456Z,5.50
2022-09-15T09:14:31.703Z,4.60
2022-09-15T09:15:31.890Z,8.20
2022-09-15T09:16:31.702Z,7.40
2022-09-15T09:17:31.731Z,8.20
2022-09-15T09:18:33.118Z,6.60
2022-09-15T09:19:32.452Z,4.40
2022-09-15T09:20:31.772Z,6.20
2022-09-15T09:21:31.863Z,13.30
2022-09-15T09:22:32.292Z,5.20
2022-09-15T09:23:32.582Z,7.00
2022-09-15T09:24:31.866Z,5.20
2022-09-15T09:25:31.544Z,5.50
2022-09-15T09:26:31.525Z,4.30
2022-09-15T09:27:32.457Z,6.00
2022-09-15T09:28:31.852Z,4.30
2022-09-15T09:29:31.503Z,6.10
2022-09-15T09:30:31.464Z,7.00
2022-09-15T09:31:31.498Z,3.30
2022-09-15T09:32:31.445Z,8.10
2022-09-15T09:33:31.875Z,7.00
2022-09-15T09:34:31.827Z,7.50
2022-09-15T09:35:31.406Z,8.00
2022-09-15T09:36:31.467Z,8.20
2022-09-15T09:37:31.445Z,7.30
2022-09-15T09:38:31.810Z,6.90
2022-09-15T09:39:31.337Z,6.70
2022-09-15T09:40:31.376Z,4.60
2022-09-15T09:41:31.338Z,6.00
2022-09-15T09:42:31.290Z,6.50
2022-09-15T09:43:31.278Z,4.40
2022-09-15T09:44:31.259Z,8.00
2022-09-15T09:45:31.260Z,5.60
2022-09-15T09:46:32.228Z,4.80
2022-09-15T09:47:31.313Z,4.70
2022-09-15T09:48:31.278Z,5.40
2022-09-15T09:49:31.192Z,3.90
2022-09-15T09:50:31.202Z,8.00
2022-09-15T09:51:31.172Z,4.40
2022-09-15T09:52:31.173Z,5.90
2022-09-15T09:53:31.174Z,4.20
2022-09-15T09:54:31.121Z,7.30
2022-09-15T09:55:31.121Z,5.40
2022-09-15T09:56:31.103Z,7.10
2022-09-15T09:57:31.066Z,4.00
2022-09-15T09:58:31.243Z,3.80
2022-09-15T09:59:31.128Z,4.60
2022-09-15T10:00:31.258Z,7.30
2022-09-15T10:01:31.058Z,4.10
2022-09-15T10:02:31.003Z,5.70
2022-09-15T10:03:33.047Z,4.80
2022-09-15T10:04:30.995Z,8.50
2022-09-15T10:05:30.954Z,3.40
2022-09-15T10:06:31.016Z,5.30
2022-09-15T10:07:30.920Z,6.00
2022-09-15T10:08:30.957Z,18.40
2022-09-15T10:09:33.406Z,14.20
2022-09-15T10:10:31.424Z,36.90
2022-09-15T10:11:38.850Z,27.90
2022-09-15T10:12:31.211Z,58.40
2022-09-15T10:13:31.147Z,17.50
2022-09-15T10:14:31.634Z,10.30
2022-09-15T11:00:50.226Z,4.70
2022-09-15T11:01:50.176Z,4.50
2022-09-15T11:02:50.015Z,6.50
2022-09-15T11:03:50.001Z,4.80
2022-09-15T11:04:50.786Z,5.70
2022-09-15T11:05:49.978Z,5.10
2022-09-15T11:06:49.964Z,5.60
2022-09-15T11:07:50.755Z,3.70
2022-09-15T11:08:50.985Z,5.10
2022-09-15T11:09:49.914Z,4.70
2022-09-15T11:10:49.922Z,4.40
2022-09-15T11:11:49.865Z,6.90
2022-09-15T11:12:49.921Z,4.70
2022-09-15T11:13:49.891Z,7.30
2022-09-15T11:14:50.167Z,5.10
2022-09-15T11:15:50.332Z,5.40
2022-09-15T11:16:50.317Z,4.20
2022-09-15T11:17:49.761Z,4.50
2022-09-15T11:18:49.759Z,6.80
2022-09-15T11:19:50.630Z,3.40
2022-09-15T11:20:50.562Z,6.60
2022-09-15T11:21:49.817Z,6.70
2022-09-15T11:22:49.937Z,5.80
2022-09-15T11:23:49.734Z,3.70
2022-09-15T11:24:49.984Z,5.80
2022-09-15T11:25:49.705Z,5.90
2022-09-15T11:26:50.463Z,5.00
2022-09-15T11:27:49.965Z,4.40
2022-09-15T11:28:49.694Z,5.70
2022-09-15T11:29:49.884Z,6.70
2022-09-15T11:30:49.724Z,7.40
2022-09-15T11:31:50.070Z,5.90
2022-09-15T11:32:52.914Z,6.20
2022-09-15T11:33:50.605Z,9.30
2022-09-15T11:34:49.588Z,7.30
2022-09-15T11:35:49.631Z,4.60
2022-09-15T11:36:49.568Z,4.40
2022-09-15T11:37:49.540Z,5.70
2022-09-15T11:38:49.590Z,3.70
2022-09-15T11:39:49.727Z,3.30
2022-09-15T11:40:49.539Z,5.50
2022-09-15T11:41:49.730Z,3.90
2022-09-15T11:42:49.493Z,4.20
2022-09-15T11:43:49.434Z,3.60
2022-09-15T11:44:49.998Z,4.50
2022-09-15T11:45:49.465Z,4.40
2022-09-15T11:46:49.460Z,4.60
2022-09-15T11:47:49.391Z,3.40
2022-09-15T11:48:49.378Z,4.30
2022-09-15T11:49:49.336Z,9.80
2022-09-15T11:50:49.314Z,3.60
2022-09-15T11:51:49.382Z,3.70
2022-09-15T11:52:49.442Z,5.00
2022-09-15T11:53:49.345Z,4.20
2022-09-15T11:54:49.282Z,5.10
2022-09-15T11:55:49.307Z,4.10
2022-09-15T11:56:49.242Z,4.90
2022-09-15T11:57:49.295Z,4.90
2022-09-15T11:58:49.327Z,7.10
2022-09-15T11:59:49.206Z,4.60
2022-09-15T12:00:49.219Z,6.30
2022-09-15T12:01:49.874Z,4.60
2022-09-15T12:02:49.538Z,10.80
2022-09-15T12:03:49.460Z,6.60
2022-09-15T12:04:49.790Z,6.50
2022-09-15T12:05:49.409Z,4.60
2022-09-15T12:06:49.530Z,5.20
2022-09-15T12:07:49.191Z,4.10
2022-09-15T12:08:49.126Z,4.60
2022-09-15T12:09:49.120Z,3.70
2022-09-15T12:10:49.191Z,6.10
2022-09-15T12:11:49.212Z,3.60
2022-09-15T12:12:49.141Z,3.70
2022-09-15T12:13:49.032Z,5.70
2022-09-15T12:14:48.973Z,3.80
2022-09-15T12:15:49.052Z,3.90
2022-09-15T12:16:49.244Z,5.20
2022-09-15T12:17:48.983Z,5.50
2022-09-15T12:18:48.975Z,6.90
2022-09-15T12:19:48.933Z,3.90
2022-09-15T12:20:48.899Z,5.50
2022-09-15T12:21:48.956Z,3.70
2022-09-15T12:22:49.216Z,3.90
2022-09-15T12:23:48.960Z,2.80
2022-09-15T12:24:49.767Z,6.40
2022-09-15T12:25:48.836Z,5.50
2022-09-15T12:26:48.825Z,3.40
2022-09-15T12:27:48.819Z,5.70
2022-09-15T12:28:48.844Z,3.30
2022-09-15T12:29:48.829Z,4.10
2022-09-15T12:30:48.832Z,4.30
2022-09-15T12:31:48.764Z,4.90
2022-09-15T12:32:48.779Z,3.30
2022-09-15T12:33:48.770Z,7.60
2022-09-15T12:34:48.781Z,6.30
2022-09-15T12:35:48.680Z,5.10
2022-09-15T12:36:48.725Z,9.20
2022-09-15T12:37:48.884Z,6.70
2022-09-15T12:38:49.215Z,4.10
2022-09-15T12:39:48.742Z,4.80
2022-09-15T12:40:48.612Z,4.70
2022-09-15T12:41:48.604Z,5.80
2022-09-15T12:42:49.573Z,3.80
2022-09-15T12:43:48.631Z,5.30
2022-09-15T12:44:48.681Z,6.30
2022-09-15T12:45:48.937Z,4.30
2022-09-15T12:46:48.639Z,3.60
2022-09-15T12:47:48.585Z,5.10
2022-09-15T12:48:48.548Z,5.10
2022-09-15T12:49:48.599Z,3.50
2022-09-15T12:50:48.518Z,6.90
2022-09-15T12:51:48.595Z,5.00
2022-09-15T12:52:48.650Z,5.80
2022-09-15T12:53:48.490Z,6.60
2022-09-15T12:54:48.478Z,5.00
2022-09-15T12:55:48.484Z,5.60
2022-09-15T12:56:48.501Z,6.10
2022-09-15T12:57:48.437Z,6.00
2022-09-15T12:58:48.599Z,5.40
2022-09-15T12:59:49.222Z,7.50
2022-09-15T13:01:14.256Z,8.10
2022-09-15T13:01:50.446Z,6.00
2022-09-15T13:02:48.471Z,4.70
2022-09-15T13:03:48.515Z,6.10
2022-09-15T13:04:48.343Z,7.00
2022-09-15T13:05:49.185Z,5.10
2022-09-15T13:06:48.383Z,5.10
2022-09-15T13:07:49.051Z,5.90
2022-09-15T13:08:48.512Z,6.20
2022-09-15T13:09:49.103Z,5.40
2022-09-15T13:10:49.314Z,7.40
2022-09-15T13:11:48.229Z,8.00
2022-09-15T13:12:48.276Z,6.10
2022-09-15T13:13:48.396Z,5.50
2022-09-15T13:14:49.100Z,5.80
2022-09-15T13:15:48.460Z,6.80
2022-09-15T13:16:48.581Z,6.30
2022-09-15T13:17:48.517Z,5.60
2022-09-15T13:18:48.953Z,4.10
2022-09-15T13:19:48.838Z,3.90
2022-09-15T13:20:48.676Z,3.70
2022-09-15T13:21:48.073Z,2.90
2022-09-15T13:22:48.814Z,3.60
2022-09-15T13:23:48.062Z,3.50
2022-09-15T13:24:48.870Z,3.40
2022-09-15T13:25:48.550Z,5.70
2022-09-15T13:26:48.083Z,4.40
2022-09-15T13:27:48.064Z,2.50
2022-09-15T13:28:50.429Z,3.80
2022-09-15T13:29:48.903Z,5.30
2022-09-15T13:30:48.135Z,2.80
2022-09-15T13:31:48.228Z,5.20
2022-09-15T13:32:49.371Z,4.60
2022-09-15T13:35:13.431Z,3.60
2022-09-15T13:35:49.050Z,4.20
2022-09-15T13:38:13.517Z,4.20
2022-09-15T13:38:48.842Z,4.60
2022-09-15T13:39:47.918Z,5.40
2022-09-15T13:40:48.616Z,4.50
2022-09-15T13:41:48.605Z,3.10
2022-09-15T13:42:47.792Z,3.80
2022-09-15T13:43:47.817Z,5.10
2022-09-15T13:44:47.781Z,4.30
2022-09-15T13:45:47.869Z,4.90
2022-09-15T13:46:47.736Z,4.40
2022-09-15T13:47:47.943Z,8.20
2022-09-15T13:48:47.834Z,3.00
2022-09-15T13:49:47.701Z,7.10
2022-09-15T13:50:47.681Z,6.70
2022-09-15T13:51:51.472Z,7.70
2022-09-15T13:52:48.636Z,4.80
2022-09-15T13:53:48.257Z,4.40
2022-09-15T13:54:47.914Z,5.50
2022-09-15T13:55:47.937Z,6.00
2022-09-15T13:56:48.097Z,5.60
2022-09-15T13:59:00.214Z,28.00
2022-09-15T13:59:48.891Z,12.30
2022-09-15T14:00:48.202Z,10.20
2022-09-15T14:01:47.808Z,8.40
2022-09-15T14:03:47.487Z,6.60